Decoded Metar for LFOJ (ORLEANS in FRANCE) (IATA:ORE) | Meteo·Mobile Aviation Weather
aviador You're here:

LFOJ Decoded Metar

ORLEANS in FRANCE
Report Time2018-09-21 11:30:00
UTC Time2018-09-21 11:43:08
Flight Rules vfr VFR
Wind270° at 14 kt
W.Decomp.*RWY 25: 13.1 kt HW 5.0 kt RCW
W.Rank270° ranks 13
Current wind is above 270° avg. (8.5)
Visibility9999 m
Phenomena:N/A
Clouds:Scattered 026 Hf
Broken 031 Hf
Broken 042 Hf
Expected CloudBase > 2,400 ft AGL from Temp-Dew spread
Ceiling3,100 ft
Temp16°C (ISA +2)
Dew Point10°C (68% RH)
AAT11.0°C
QNH1016 hPa
Density Alt689 ft
Elevation410 ft
Report Wrong Elevation
Raw Report
LFOJ 211130Z AUTO 27014KT 9999 SCT026 BKN031 BKN042 16/10 Q1016
NOSIG=

Extra information for LFOJ:More info

Metar Taf Metar & Taf Last 4 Metars F.Rules Stats Wind Profile Meteogram Temp Stats Airport Information Weather charts Add Link Nearby VenuesMetar ALERT Operation Metar Decoded Social comments